Time;durP1;ratioP1;P1;durP2;ratioP2;P2;SDS_P1;SDS_P2;PMS_P1;PMS_P2;Temp;Humidity;BMP_temperature;BMP_pressure;BME280_temperature;BME280_humidity;BME280_pressure;Samples;Min_cycle;Max_cycle;Signal;HPM_P1;HPM_P2
2023/09/16 00:04:11;;;;;;;10.10;5.80;;;;;;;15.55;65.92;99629.37;232663;215;146669;-69
2023/09/16 00:09:18;;;;;;;8.80;5.90;;;;;;;15.51;66.02;99627.00;232668;215;139158;-66
2023/09/16 00:14:24;;;;;;;11.20;5.50;;;;;;;15.46;66.05;99617.58;232666;215;138102;-64
2023/09/16 00:19:28;;;;;;;9.20;5.30;;;;;;;15.42;66.26;99616.60;232824;215;146155;-67
2023/09/16 00:24:32;;;;;;;10.40;5.20;;;;;;;15.38;66.33;99616.30;232631;215;139736;-67
2023/09/16 00:29:38;;;;;;;9.80;5.90;;;;;;;15.38;66.22;99615.40;232717;215;137834;-66
2023/09/16 00:34:42;;;;;;;9.80;5.50;;;;;;;15.38;66.35;99614.58;232621;215;146633;-65
2023/09/16 00:39:47;;;;;;;11.40;5.70;;;;;;;15.37;66.45;99611.37;232752;215;140716;-68
2023/09/16 00:44:54;;;;;;;10.40;5.50;;;;;;;15.36;66.52;99607.38;232720;215;137217;-71
2023/09/16 00:50:01;;;;;;;9.20;5.50;;;;;;;15.31;66.65;99606.60;232710;215;146956;-72
2023/09/16 00:55:08;;;;;;;8.90;5.40;;;;;;;15.29;66.89;99604.48;232857;215;139823;-69
2023/09/16 01:00:16;;;;;;;8.50;4.90;;;;;;;15.28;66.99;99602.38;232697;214;137942;-72
2023/09/16 01:05:25;;;;;;;8.70;5.20;;;;;;;15.27;67.07;99599.77;232666;214;147115;-68
2023/09/16 01:10:33;;;;;;;9.70;6.00;;;;;;;15.24;67.20;99600.55;232646;215;138875;-64
2023/09/16 01:15:46;;;;;;;12.30;6.00;;;;;;;15.19;67.44;99596.64;232674;215;137064;-75
2023/09/16 01:20:55;;;;;;;9.90;5.30;;;;;;;15.15;67.73;99590.31;232645;214;146194;-74
2023/09/16 01:26:01;;;;;;;8.90;5.00;;;;;;;15.14;67.78;99584.09;232860;215;147919;-71
2023/09/16 01:31:08;;;;;;;9.70;5.50;;;;;;;15.18;67.91;99581.52;232670;215;137228;-66
2023/09/16 01:36:21;;;;;;;8.90;5.40;;;;;;;15.22;67.82;99581.94;232723;211;144988;-64
2023/09/16 01:41:28;;;;;;;9.20;6.00;;;;;;;15.25;67.84;99570.95;232567;214;139888;-64
2023/09/16 01:46:34;;;;;;;10.70;5.70;;;;;;;15.22;67.72;99564.56;232622;214;138422;-65
2023/09/16 01:51:39;;;;;;;10.80;6.10;;;;;;;15.17;67.87;99563.87;232607;215;148024;-64
2023/09/16 01:56:45;;;;;;;8.30;5.60;;;;;;;15.09;67.96;99571.58;232719;215;139522;-60
2023/09/16 02:01:50;;;;;;;12.10;5.50;;;;;;;15.00;68.27;99579.20;232866;215;136942;-63
2023/09/16 02:06:57;;;;;;;11.60;5.80;;;;;;;14.98;68.59;99579.23;232826;214;148168;-66
2023/09/16 02:12:05;;;;;;;10.60;5.70;;;;;;;14.96;68.86;99574.69;232631;215;139862;-60
2023/09/16 02:17:09;;;;;;;9.00;5.60;;;;;;;14.91;68.85;99576.30;232699;215;137112;-63
2023/09/16 02:22:17;;;;;;;7.60;5.20;;;;;;;14.87;68.92;99571.58;232745;215;146474;-63
2023/09/16 02:27:22;;;;;;;10.10;5.20;;;;;;;14.88;69.06;99571.66;232721;215;140464;-67
2023/09/16 02:32:29;;;;;;;11.80;5.40;;;;;;;14.91;69.04;99573.60;232655;215;137197;-66
2023/09/16 02:37:34;;;;;;;10.10;5.80;;;;;;;14.92;68.99;99573.54;232748;215;146295;-67
2023/09/16 02:42:41;;;;;;;7.70;4.90;;;;;;;14.91;68.89;99572.41;232637;215;139814;-71
2023/09/16 02:47:45;;;;;;;8.70;5.40;;;;;;;14.85;69.05;99573.34;232679;215;137760;-67
2023/09/16 02:52:51;;;;;;;;;;;;;;;14.79;69.09;99574.98;232709;215;147279;-69
2023/09/16 02:57:59;;;;;;;9.60;4.90;;;;;;;14.74;69.26;99573.93;232656;215;141385;-67
2023/09/16 03:03:11;;;;;;;10.50;5.40;;;;;;;14.66;69.40;99570.74;232600;214;137578;-69
2023/09/16 03:08:19;;;;;;;7.10;4.90;;;;;;;14.59;69.57;99572.80;232679;215;148413;-67
2023/09/16 03:13:26;;;;;;;12.80;4.80;;;;;;;14.54;69.63;99575.33;232806;215;139429;-69
2023/09/16 03:18:31;;;;;;;7.50;4.90;;;;;;;14.52;69.82;99577.77;232739;215;138782;-63
2023/09/16 03:23:37;;;;;;;8.00;5.10;;;;;;;14.52;69.66;99573.70;232592;215;148117;-72
2023/09/16 03:28:46;;;;;;;7.00;5.00;;;;;;;14.53;69.68;99573.61;232606;215;139863;-64
2023/09/16 03:33:55;;;;;;;8.00;5.00;;;;;;;14.54;69.54;99574.80;232653;215;139047;-65
2023/09/16 03:39:01;;;;;;;6.80;4.80;;;;;;;14.51;69.49;99575.33;232613;215;284067;-65
2023/09/16 03:44:11;;;;;;;6.60;4.70;;;;;;;14.47;69.52;99570.27;232784;215;139034;-67
2023/09/16 03:49:15;;;;;;;8.70;5.20;;;;;;;14.40;69.61;99570.40;232841;215;137423;-67
2023/09/16 03:54:22;;;;;;;9.00;5.10;;;;;;;14.31;69.76;99566.73;232641;214;147987;-71
2023/09/16 03:59:28;;;;;;;8.60;5.00;;;;;;;14.24;69.93;99573.08;232595;214;139830;-65
2023/09/16 04:04:35;;;;;;;7.70;4.80;;;;;;;14.17;70.07;99573.70;234609;214;138120;-68
2023/09/16 04:09:38;;;;;;;8.90;4.90;;;;;;;14.14;70.14;99579.85;234694;215;147699;-69
2023/09/16 04:18:07;;;;;;;10.60;6.30;;;;;;;14.25;70.11;99575.16;231318;225;733722;-71
2023/09/16 04:23:14;;;;;;;8.20;5.00;;;;;;;14.22;70.09;99571.63;232981;217;136606;-74
2023/09/16 04:28:19;;;;;;;8.90;5.00;;;;;;;14.16;70.33;99573.95;232901;217;144087;-67
2023/09/16 04:33:27;;;;;;;8.50;4.90;;;;;;;14.07;70.40;99574.23;232921;216;139818;-67
2023/09/16 04:38:33;;;;;;;10.50;4.70;;;;;;;14.04;70.71;99570.91;232835;217;136756;-65
2023/09/16 04:43:43;;;;;;;8.40;5.60;;;;;;;14.00;70.73;99569.71;233119;216;143826;-68
2023/09/16 04:48:51;;;;;;;6.60;4.80;;;;;;;13.94;70.94;99561.77;232970;216;143082;-67
2023/09/16 04:54:01;;;;;;;7.20;4.80;;;;;;;13.96;71.23;99563.23;232991;216;137520;-73
2023/09/16 04:59:07;;;;;;;7.00;4.60;;;;;;;14.03;71.25;99564.55;232872;216;145693;-72
2023/09/16 05:04:12;;;;;;;9.20;5.40;;;;;;;14.08;71.07;99567.56;232782;216;139912;-75
2023/09/16 05:09:22;;;;;;;10.10;5.40;;;;;;;14.07;71.01;99563.91;232467;214;137209;-68
2023/09/16 05:14:29;;;;;;;7.70;5.20;;;;;;;14.05;71.05;99564.00;232621;214;147318;-72
2023/09/16 05:19:35;;;;;;;11.00;5.20;;;;;;;14.01;71.03;99571.63;232818;214;139444;-69
2023/09/16 05:24:42;;;;;;;8.80;5.30;;;;;;;14.02;71.38;99571.94;232646;214;137465;-69
2023/09/16 05:29:52;;;;;;;12.00;6.00;;;;;;;14.03;71.56;99571.86;232790;215;146498;-67
2023/09/16 05:34:58;;;;;;;16.50;11.30;;;;;;;14.06;71.88;99569.11;232789;215;139406;-67
2023/09/16 05:40:09;;;;;;;62.20;47.70;;;;;;;14.25;72.47;99565.85;232796;214;139801;-62
2023/09/16 05:45:14;;;;;;;17.00;11.60;;;;;;;14.43;72.09;99573.20;232871;215;146457;-61
2023/09/16 05:50:22;;;;;;;18.60;9.80;;;;;;;14.54;71.74;99579.77;232860;215;138595;-65
2023/09/16 05:55:30;;;;;;;28.00;21.00;;;;;;;14.66;71.51;99578.42;232882;215;137034;-66
2023/09/16 06:00:40;;;;;;;57.90;48.90;;;;;;;14.72;71.40;99574.41;232691;213;145927;-68
2023/09/16 06:05:45;;;;;;;16.40;10.70;;;;;;;14.79;71.22;99574.42;232664;215;140254;-63
2023/09/16 06:10:51;;;;;;;12.20;9.00;;;;;;;14.84;70.94;99575.73;232716;215;136926;-65
2023/09/16 06:15:56;;;;;;;14.40;8.60;;;;;;;14.85;71.06;99569.23;232679;215;146123;-69
2023/09/16 06:21:04;;;;;;;20.50;16.30;;;;;;;14.87;71.08;99568.50;232637;213;140239;-69
2023/09/16 06:26:12;;;;;;;10.80;9.40;;;;;;;14.89;71.08;99570.00;232818;214;139693;-69
2023/09/16 06:31:18;;;;;;;14.50;9.10;;;;;;;14.95;71.10;99570.84;232621;215;145842;-66
2023/09/16 06:36:25;;;;;;;12.50;8.80;;;;;;;15.12;71.23;99569.60;232655;215;139186;-69
2023/09/16 06:41:30;;;;;;;11.30;8.50;;;;;;;15.19;70.63;99567.46;232734;215;140176;-69
2023/09/16 06:46:46;;;;;;;9.10;7.50;;;;;;;15.19;70.71;99572.33;232719;214;147150;-65
2023/09/16 06:51:52;;;;;;;10.40;7.60;;;;;;;15.23;70.89;99572.05;232665;215;139804;-65
2023/09/16 06:56:58;;;;;;;;;;;;;;;15.27;70.85;99571.02;232769;215;137425;-68
2023/09/16 07:02:03;;;;;;;8.70;6.40;;;;;;;15.32;71.04;99570.61;232940;214;147650;-65
2023/09/16 07:07:13;;;;;;;8.50;5.80;;;;;;;15.48;71.30;99570.16;232704;215;140468;-67
2023/09/16 07:12:20;;;;;;;7.00;5.10;;;;;;;15.67;71.06;99570.56;232678;215;138155;-69
2023/09/16 07:17:26;;;;;;;49.60;38.80;;;;;;;15.84;71.21;99573.81;232715;215;147264;-66
2023/09/16 07:22:38;;;;;;;8.20;5.30;;;;;;;16.06;70.82;99579.15;232719;215;139339;-66
2023/09/16 07:27:45;;;;;;;8.70;5.60;;;;;;;16.18;69.76;99580.73;232653;215;138164;-66
2023/09/16 07:32:52;;;;;;;7.20;5.00;;;;;;;16.20;69.68;99578.75;232636;215;145986;-66
2023/09/16 07:37:56;;;;;;;6.50;5.30;;;;;;;16.26;69.59;99580.77;232718;215;139133;-65
2023/09/16 07:43:02;;;;;;;;;;;;;;;16.35;69.73;99580.63;232762;215;137443;-57
2023/09/16 07:48:09;;;;;;;9.70;6.70;;;;;;;16.52;69.63;99583.47;232850;215;147449;-68
2023/09/16 07:53:17;;;;;;;10.30;7.60;;;;;;;16.68;69.52;99585.99;232615;215;139227;-69
2023/09/16 07:58:23;;;;;;;11.90;8.70;;;;;;;16.79;68.86;99588.55;232805;215;137270;-67
2023/09/16 08:03:28;;;;;;;;;;;;;;;16.90;68.61;99588.57;232833;215;146092;-66
2023/09/16 08:08:35;;;;;;;10.80;7.70;;;;;;;16.98;68.19;99582.39;232997;215;140357;-63
2023/09/16 08:13:41;;;;;;;11.50;8.00;;;;;;;17.02;67.55;99580.94;232700;215;140037;-66
2023/09/16 08:18:47;;;;;;;10.20;7.70;;;;;;;17.08;67.47;99581.80;232683;215;146154;-65
2023/09/16 08:23:53;;;;;;;11.20;8.10;;;;;;;17.17;67.10;99584.63;232614;215;140127;-65
2023/09/16 08:28:58;;;;;;;11.60;8.10;;;;;;;17.24;66.69;99585.08;232754;215;137679;-65
2023/09/16 08:34:04;;;;;;;256.80;215.20;;;;;;;17.08;66.27;99586.92;232834;215;147665;-63
2023/09/16 08:39:10;;;;;;;13.50;9.90;;;;;;;17.03;67.18;99596.09;232701;215;140167;-65
2023/09/16 08:44:22;;;;;;;12.80;8.90;;;;;;;17.16;67.18;99593.09;232794;215;137742;-60
2023/09/16 08:49:31;;;;;;;10.30;7.90;;;;;;;17.24;66.82;99595.14;232706;215;147215;-63
2023/09/16 08:54:42;;;;;;;16.50;9.10;;;;;;;17.21;66.59;99597.17;232647;214;139865;-62
2023/09/16 08:59:49;;;;;;;10.70;8.20;;;;;;;17.20;66.51;99600.70;232697;215;136997;-64
2023/09/16 09:04:55;;;;;;;38.80;30.30;;;;;;;17.19;67.03;99591.96;232632;215;146469;-64
2023/09/16 09:10:02;;;;;;;12.00;7.90;;;;;;;17.24;66.83;99591.03;232651;215;142168;-60
2023/09/16 09:15:13;;;;;;;11.50;9.20;;;;;;;17.28;66.63;99589.80;232697;215;137944;-64
2023/09/16 09:20:27;;;;;;;12.50;9.70;;;;;;;17.26;66.78;99591.02;232768;215;147280;-62
2023/09/16 09:25:36;;;;;;;12.20;9.00;;;;;;;17.22;66.78;99583.98;232719;215;139824;-63
2023/09/16 09:30:41;;;;;;;11.50;8.90;;;;;;;17.34;67.28;99582.35;232753;215;138575;-63
2023/09/16 09:36:11;;;;;;;13.30;8.70;;;;;;;17.55;67.21;99574.48;232758;214;148408;-68
2023/09/16 09:41:19;;;;;;;11.60;9.00;;;;;;;17.90;66.94;99570.41;232660;215;140682;-68
2023/09/16 09:46:25;;;;;;;14.30;9.30;;;;;;;18.21;66.40;99568.29;232716;214;137694;-67
2023/09/16 09:51:30;;;;;;;71.50;61.90;;;;;;;18.53;65.92;99563.94;232716;215;146414;-63
2023/09/16 09:56:35;;;;;;;13.40;10.40;;;;;;;18.87;65.80;99563.12;232797;215;139263;-64
2023/09/16 10:01:41;;;;;;;12.50;9.20;;;;;;;19.25;65.09;99558.52;232711;215;138217;-65
2023/09/16 10:06:48;;;;;;;44.50;33.30;;;;;;;19.61;64.22;99547.29;232653;215;146663;-65
2023/09/16 10:11:57;;;;;;;15.60;10.30;;;;;;;19.97;63.66;99541.87;232769;215;141496;-64
2023/09/16 10:17:04;;;;;;;11.30;7.90;;;;;;;20.36;61.88;99531.50;232724;215;137879;-64
2023/09/16 10:22:14;;;;;;;14.30;7.90;;;;;;;20.74;60.65;99529.66;232639;215;146239;-66
2023/09/16 10:27:29;;;;;;;13.70;7.50;;;;;;;21.01;59.89;99522.08;232664;215;140926;-65
2023/09/16 10:32:36;;;;;;;10.90;7.00;;;;;;;21.24;59.52;99515.42;232822;215;136952;-62
2023/09/16 10:37:46;;;;;;;15.90;7.20;;;;;;;21.44;58.93;99513.27;232764;215;146565;-61
2023/09/16 10:42:53;;;;;;;12.70;7.60;;;;;;;21.67;58.44;99512.26;232747;215;139102;-62
2023/09/16 10:48:01;;;;;;;35.30;25.50;;;;;;;21.83;58.97;99511.77;232717;215;138298;-66
2023/09/16 10:53:15;;;;;;;14.30;7.50;;;;;;;22.08;58.57;99507.36;232747;215;147800;-64
2023/09/16 10:58:34;;;;;;;15.10;6.90;;;;;;;22.28;57.65;99502.11;232679;214;140340;-63
2023/09/16 11:03:53;;;;;;;17.50;7.20;;;;;;;22.30;57.13;99494.86;232719;215;137700;-63
2023/09/16 11:09:02;;;;;;;11.50;6.60;;;;;;;22.44;57.89;99489.17;232794;215;148018;-63
2023/09/16 11:14:10;;;;;;;10.60;6.00;;;;;;;22.69;57.87;99486.02;232679;215;139969;-63
2023/09/16 11:19:21;;;;;;;46.60;37.00;;;;;;;22.88;56.83;99480.08;232808;215;137342;-64
2023/09/16 11:24:28;;;;;;;8.10;6.30;;;;;;;23.08;57.03;99471.11;232743;214;145878;-61
2023/09/16 11:29:33;;;;;;;10.80;6.00;;;;;;;23.18;56.33;99468.52;232667;215;139741;-62
2023/09/16 11:34:40;;;;;;;61.00;45.00;;;;;;;23.42;55.99;99463.77;232752;215;137942;-62
2023/09/16 11:39:46;;;;;;;9.80;6.40;;;;;;;23.63;55.69;99459.66;232700;215;146141;-59
2023/09/16 11:44:51;;;;;;;13.90;6.00;;;;;;;23.90;55.89;99457.75;232790;215;140691;-62
2023/09/16 11:49:56;;;;;;;8.40;5.80;;;;;;;24.12;55.52;99449.69;232697;215;137686;-61
2023/09/16 11:55:03;;;;;;;8.00;6.10;;;;;;;24.32;54.53;99441.86;232621;215;280660;-58
2023/09/16 12:00:13;;;;;;;12.00;6.00;;;;;;;24.59;54.25;99432.12;232640;215;139670;-63
2023/09/16 12:05:22;;;;;;;23.40;19.40;;;;;;;24.87;53.88;99425.60;233045;214;137731;-61
2023/09/16 12:10:30;;;;;;;9.10;5.50;;;;;;;25.02;52.56;99427.13;232928;215;147735;-64
2023/09/16 12:15:34;;;;;;;;;;;;;;;25.10;51.75;99430.44;232961;215;142828;-62
2023/09/16 12:20:39;;;;;;;48.60;41.20;;;;;;;25.04;51.48;99425.41;233131;215;131079;-62
2023/09/16 12:25:44;;;;;;;6.60;5.40;;;;;;;25.05;52.20;99418.39;232965;215;145506;-60
2023/09/16 12:30:51;;;;;;;6.90;4.60;;;;;;;25.09;52.03;99404.92;232825;215;139012;-62
2023/09/16 12:35:54;;;;;;;8.50;5.30;;;;;;;25.18;51.94;99396.18;232966;216;137145;-63
2023/09/16 12:41:02;;;;;;;8.60;5.00;;;;;;;25.25;51.97;99394.01;232879;215;145491;-63
2023/09/16 12:46:08;;;;;;;10.50;5.00;;;;;;;25.24;51.30;99388.58;232812;215;138809;-61
2023/09/16 12:51:12;;;;;;;58.40;43.70;;;;;;;25.24;51.85;99382.04;232994;215;139879;-61
2023/09/16 12:56:17;;;;;;;10.60;8.30;;;;;;;25.34;51.77;99378.52;232906;215;147296;-60
2023/09/16 13:01:23;;;;;;;8.10;5.40;;;;;;;25.49;51.88;99371.15;232861;215;140707;-64
2023/09/16 13:06:29;;;;;;;8.80;6.40;;;;;;;25.61;51.63;99369.61;232925;215;137149;-64
2023/09/16 13:11:35;;;;;;;6.30;5.20;;;;;;;25.78;51.61;99368.77;232844;215;149567;-65
2023/09/16 13:16:41;;;;;;;8.50;5.30;;;;;;;25.98;51.37;99368.52;232773;215;139074;-60
2023/09/16 13:21:48;;;;;;;7.00;5.30;;;;;;;26.14;50.99;99364.36;232805;215;137746;-60
2023/09/16 13:26:55;;;;;;;138.70;118.90;;;;;;;26.32;50.80;99361.13;232988;215;147392;-61
2023/09/16 13:32:00;;;;;;;9.30;7.70;;;;;;;26.59;50.73;99359.38;232828;215;138643;-63
2023/09/16 13:37:05;;;;;;;6.90;5.10;;;;;;;26.76;49.85;99355.91;232903;215;137613;-61
2023/09/16 13:42:12;;;;;;;11.50;7.70;;;;;;;26.82;49.90;99342.85;232874;216;147484;-63
2023/09/16 13:47:16;;;;;;;6.50;5.60;;;;;;;26.87;49.72;99341.27;232807;215;140125;-63
2023/09/16 13:52:20;;;;;;;10.40;4.90;;;;;;;26.80;49.94;99340.77;232869;215;137649;-63
2023/09/16 13:57:24;;;;;;;23.50;8.50;;;;;;;26.48;50.44;99342.52;232933;215;149539;-65
2023/09/16 14:02:29;;;;;;;11.00;6.30;;;;;;;26.14;51.42;99339.36;232823;215;140404;-64
2023/09/16 14:07:35;;;;;;;20.80;9.40;;;;;;;25.81;52.26;99333.80;232871;215;137686;-66
2023/09/16 14:12:40;;;;;;;26.70;16.70;;;;;;;25.53;53.30;99332.70;232785;215;147665;-64
2023/09/16 14:17:45;;;;;;;8.10;6.20;;;;;;;25.24;53.66;99331.40;232828;216;140924;-64
2023/09/16 14:22:50;;;;;;;6.90;5.20;;;;;;;25.00;54.12;99324.75;232891;215;138240;-61
2023/09/16 14:27:57;;;;;;;7.60;6.70;;;;;;;24.88;54.63;99319.45;232916;215;147340;-62
2023/09/16 14:33:05;;;;;;;10.40;8.80;;;;;;;24.76;55.09;99311.61;232944;215;139749;-61
2023/09/16 14:38:09;;;;;;;8.50;5.40;;;;;;;24.59;55.65;99301.28;232867;215;152214;-62
2023/09/16 14:43:13;;;;;;;5.80;4.70;;;;;;;24.48;56.01;99302.36;233042;216;148205;-64
2023/09/16 14:48:18;;;;;;;;;;;;;;;24.37;56.40;99303.06;232877;215;140387;-61
2023/09/16 14:53:22;;;;;;;6.40;5.10;;;;;;;24.24;56.93;99302.02;232932;215;132945;-62
2023/09/16 14:58:26;;;;;;;6.50;4.70;;;;;;;24.13;57.90;99294.19;232901;215;148126;-63
2023/09/16 15:03:31;;;;;;;7.40;4.90;;;;;;;24.02;58.28;99296.23;232977;215;138689;-62
2023/09/16 15:08:35;;;;;;;8.50;5.10;;;;;;;23.90;58.72;99293.13;232914;215;138225;-64
2023/09/16 15:13:40;;;;;;;8.30;4.50;;;;;;;23.79;59.11;99290.69;232930;215;148104;-63
2023/09/16 15:18:45;;;;;;;7.70;5.30;;;;;;;23.73;59.72;99288.80;232760;215;138774;-62
2023/09/16 15:23:51;;;;;;;82.40;70.50;;;;;;;23.71;60.21;99285.96;232836;215;145354;-61
2023/09/16 15:28:55;;;;;;;6.00;5.40;;;;;;;23.73;60.01;99285.92;232841;215;150334;-64
2023/09/16 15:34:02;;;;;;;8.30;5.30;;;;;;;23.70;60.23;99287.53;232815;215;142801;-63
2023/09/16 15:39:05;;;;;;;6.90;5.10;;;;;;;23.65;60.71;99293.10;232931;215;137339;-64
2023/09/16 15:44:08;;;;;;;9.50;5.60;;;;;;;23.59;61.05;99294.14;232825;215;147798;-65
2023/09/16 15:49:13;;;;;;;9.80;5.80;;;;;;;23.52;61.53;99292.58;232716;215;139687;-66
2023/09/16 15:54:18;;;;;;;11.90;5.50;;;;;;;23.44;61.89;99295.91;232839;215;137391;-62
2023/09/16 15:59:23;;;;;;;8.00;5.10;;;;;;;23.35;62.15;99304.61;232835;215;147406;-65
2023/09/16 16:04:28;;;;;;;7.00;5.60;;;;;;;23.30;62.30;99300.10;232847;215;138830;-63
2023/09/16 16:09:33;;;;;;;8.00;5.40;;;;;;;23.26;62.56;99301.17;233029;215;137788;-62
2023/09/16 16:14:38;;;;;;;6.30;4.90;;;;;;;23.22;62.62;99297.17;232876;215;149862;-63
2023/09/16 16:19:43;;;;;;;7.80;5.80;;;;;;;23.18;62.71;99293.55;232840;215;140748;-66
2023/09/16 16:24:49;;;;;;;6.00;5.00;;;;;;;23.14;62.75;99290.36;232868;215;137650;-63
2023/09/16 16:29:53;;;;;;;10.20;5.10;;;;;;;23.08;62.79;99288.57;232801;215;148276;-63
2023/09/16 16:34:58;;;;;;;8.00;5.10;;;;;;;23.02;62.95;99279.58;232827;215;138656;-64
2023/09/16 16:40:23;;;;;;;9.50;7.00;;;;;;;23.00;63.25;99274.71;231428;224;725135;-66
2023/09/16 16:45:27;;;;;;;11.30;7.60;;;;;;;22.96;63.09;99274.61;232990;215;137458;-66
2023/09/16 16:50:32;;;;;;;9.40;5.90;;;;;;;22.92;63.40;99273.02;232960;215;143987;-62
2023/09/16 16:55:36;;;;;;;7.70;5.40;;;;;;;22.88;63.49;99266.87;232831;215;140073;-65
2023/09/16 17:00:44;;;;;;;7.60;5.70;;;;;;;22.80;63.18;99271.91;232848;215;136925;-64
2023/09/16 17:05:48;;;;;;;8.70;6.10;;;;;;;22.75;63.26;99276.46;232846;215;144753;-62
2023/09/16 17:10:51;;;;;;;7.80;5.80;;;;;;;22.68;63.14;99278.65;232832;215;139305;-65
2023/09/16 17:15:54;;;;;;;7.50;5.90;;;;;;;22.59;63.35;99278.05;233044;215;136550;-67
2023/09/16 17:20:59;;;;;;;8.30;5.80;;;;;;;22.49;63.50;99278.90;232912;215;144572;-63
2023/09/16 17:26:07;;;;;;;9.40;5.80;;;;;;;22.41;63.83;99283.27;232942;216;142654;-66
2023/09/16 17:34:31;;;;;;;7.60;6.20;;;;;;;22.33;63.83;99291.88;231388;225;739374;-67
2023/09/16 17:39:37;;;;;;;6.60;5.40;;;;;;;22.25;64.03;99300.86;232942;215;137284;-64
2023/09/16 17:44:43;;;;;;;11.80;8.90;;;;;;;22.17;63.80;99302.18;232848;215;144332;-65
2023/09/16 17:49:47;;;;;;;29.70;24.50;;;;;;;22.12;64.05;99308.40;232740;214;139586;-66
2023/09/16 17:54:50;;;;;;;29.30;21.40;;;;;;;22.14;64.64;99311.79;232825;215;137294;-66
2023/09/16 17:59:57;;;;;;;15.20;11.20;;;;;;;22.17;64.50;99310.19;232757;215;144061;-64
2023/09/16 18:05:01;;;;;;;9.60;7.20;;;;;;;22.22;64.19;99304.41;232731;215;142049;-64
2023/09/16 18:10:07;;;;;;;9.50;6.00;;;;;;;22.10;63.04;99304.64;232875;212;138248;-61
2023/09/16 18:15:14;;;;;;;8.70;5.90;;;;;;;21.93;63.02;99304.78;232876;215;145485;-66
2023/09/16 18:20:22;;;;;;;95.10;79.60;;;;;;;21.79;63.17;99302.23;232797;215;139044;-63
2023/09/16 18:25:26;;;;;;;9.20;6.60;;;;;;;21.68;63.33;99305.96;232807;215;138540;-63
2023/09/16 18:30:30;;;;;;;7.90;5.80;;;;;;;21.54;63.52;99302.52;232821;214;147439;-64
2023/09/16 18:35:36;;;;;;;8.60;5.80;;;;;;;21.41;63.83;99302.77;232727;213;138912;-61
2023/09/16 18:40:41;;;;;;;7.10;5.50;;;;;;;21.28;64.17;99298.69;232670;214;137450;-61
2023/09/16 18:45:47;;;;;;;10.40;5.80;;;;;;;21.15;64.55;99297.62;232892;215;146589;-62
2023/09/16 18:50:52;;;;;;;11.70;6.40;;;;;;;21.04;64.86;99298.20;232786;215;139018;-64
2023/09/16 18:55:56;;;;;;;8.80;6.50;;;;;;;20.98;65.07;99294.86;232802;215;137563;-60
2023/09/16 19:01:02;;;;;;;6.90;5.30;;;;;;;20.90;65.34;99296.55;232730;214;147069;-60
2023/09/16 19:06:09;;;;;;;7.30;5.30;;;;;;;20.84;65.56;99290.67;232696;214;140465;-63
2023/09/16 19:11:12;;;;;;;9.00;5.80;;;;;;;20.86;65.71;99287.12;232857;214;138126;-64
2023/09/16 19:16:16;;;;;;;118.50;95.20;;;;;;;20.88;66.06;99288.71;232916;215;145807;-62
2023/09/16 19:21:21;;;;;;;9.20;7.50;;;;;;;20.96;66.31;99288.77;232964;215;142068;-62
2023/09/16 19:26:28;;;;;;;10.10;5.90;;;;;;;20.89;65.83;99290.17;232798;213;137353;-64
2023/09/16 19:31:31;;;;;;;7.80;5.70;;;;;;;20.79;65.92;99288.87;232708;215;145746;-59
2023/09/16 19:36:38;;;;;;;8.00;5.80;;;;;;;20.69;66.31;99282.08;232786;214;138715;-62
2023/09/16 19:41:43;;;;;;;;;;;;;;;20.60;66.42;99281.71;232738;214;137266;-61
2023/09/16 19:46:48;;;;;;;8.30;6.00;;;;;;;20.49;66.80;99288.17;232847;215;145956;-61
2023/09/16 19:52:00;;;;;;;9.40;5.90;;;;;;;20.40;67.16;99292.02;232963;215;140083;-61
2023/09/16 19:57:05;;;;;;;8.80;6.20;;;;;;;20.29;67.45;99291.76;232813;215;139401;-60
2023/09/16 20:02:13;;;;;;;9.90;5.30;;;;;;;20.22;67.81;99287.46;232682;214;146405;-59
2023/09/16 20:07:18;;;;;;;10.10;5.80;;;;;;;20.19;67.89;99291.36;232711;215;138786;-58
2023/09/16 20:12:22;;;;;;;10.00;7.30;;;;;;;20.18;68.06;99289.80;232744;215;137383;-59
2023/09/16 20:17:28;;;;;;;9.60;6.60;;;;;;;20.19;68.15;99288.63;232776;215;145813;-59
2023/09/16 20:22:35;;;;;;;10.40;6.60;;;;;;;20.16;68.17;99288.58;232841;215;140776;-59
2023/09/16 20:27:42;;;;;;;8.00;6.10;;;;;;;20.08;68.31;99295.79;232793;215;137403;-59
2023/09/16 20:32:46;;;;;;;9.80;6.30;;;;;;;20.03;68.52;99292.20;232800;215;145748;-59
2023/09/16 20:37:51;;;;;;;8.60;6.40;;;;;;;19.96;68.78;99289.30;232734;215;138797;-58
2023/09/16 20:42:55;;;;;;;12.30;7.10;;;;;;;19.89;68.82;99287.58;232847;215;139711;-60
2023/09/16 20:48:04;;;;;;;10.20;6.20;;;;;;;19.84;69.07;99284.27;232752;215;147833;-60
2023/09/16 20:53:08;;;;;;;7.60;6.00;;;;;;;19.83;69.39;99283.27;232801;215;139290;-58
2023/09/16 20:58:11;;;;;;;8.40;6.10;;;;;;;19.85;69.35;99288.36;232863;215;138533;-57
2023/09/16 21:03:17;;;;;;;10.00;7.10;;;;;;;19.83;69.46;99291.60;232725;214;145536;-59
2023/09/16 21:08:23;;;;;;;12.10;7.90;;;;;;;19.76;69.48;99283.95;232826;215;138762;-61
2023/09/16 21:13:27;;;;;;;10.40;7.10;;;;;;;19.69;69.57;99287.19;232740;215;137516;-60
2023/09/16 21:18:32;;;;;;;10.30;6.50;;;;;;;19.61;70.01;99286.41;232744;215;148668;-59
2023/09/16 21:23:37;;;;;;;10.40;6.10;;;;;;;19.53;70.33;99291.17;232747;215;139708;-60
2023/09/16 21:28:40;;;;;;;10.00;6.60;;;;;;;19.46;70.50;99289.66;232833;215;139366;-60
2023/09/16 21:33:45;;;;;;;8.60;7.20;;;;;;;19.45;70.54;99279.55;232881;214;145843;-61
2023/09/16 21:38:49;;;;;;;10.60;7.30;;;;;;;19.45;70.68;99280.80;232703;214;139064;-63
2023/09/16 21:43:53;;;;;;;11.60;7.20;;;;;;;19.41;70.83;99277.23;232787;215;138159;-61
2023/09/16 21:48:58;;;;;;;9.20;7.20;;;;;;;19.36;70.83;99276.07;232836;215;145809;-61
2023/09/16 21:54:04;;;;;;;11.10;7.70;;;;;;;19.28;70.92;99277.91;232705;214;138976;-57
2023/09/16 21:59:07;;;;;;;10.90;8.20;;;;;;;19.20;71.13;99277.79;232900;215;137505;-60
2023/09/16 22:04:13;;;;;;;10.10;8.10;;;;;;;19.11;71.40;99275.19;232815;214;146559;-61
2023/09/16 22:09:18;;;;;;;11.60;6.90;;;;;;;19.05;71.58;99275.39;232766;215;139354;-61
2023/09/16 22:14:23;;;;;;;15.00;7.40;;;;;;;19.04;71.57;99273.70;232707;215;138063;-61
2023/09/16 22:19:30;;;;;;;10.10;7.50;;;;;;;18.99;71.65;99275.39;232814;215;145833;-61
2023/09/16 22:24:36;;;;;;;9.00;7.50;;;;;;;18.91;71.85;99277.03;232725;215;138645;-57
2023/09/16 22:29:39;;;;;;;10.80;7.80;;;;;;;18.84;71.92;99274.34;232774;214;136596;-64
2023/09/16 22:34:42;;;;;;;11.70;7.90;;;;;;;18.75;72.16;99275.91;232952;215;146462;-65
2023/09/16 22:39:48;;;;;;;12.60;7.30;;;;;;;18.65;72.58;99278.51;232672;214;138601;-61
2023/09/16 22:45:00;;;;;;;11.30;7.20;;;;;;;18.58;72.86;99286.50;232702;215;138346;-62
2023/09/16 22:50:12;;;;;;;11.20;7.30;;;;;;;18.58;73.19;99291.97;232682;215;146398;-61
2023/09/16 22:55:16;;;;;;;13.20;8.10;;;;;;;18.56;73.28;99292.25;232679;215;139872;-61
2023/09/16 23:00:21;;;;;;;13.20;8.10;;;;;;;18.55;73.39;99290.79;232755;214;136650;-60
2023/09/16 23:05:27;;;;;;;13.80;8.50;;;;;;;18.51;73.67;99284.99;232734;215;145868;-60
2023/09/16 23:10:32;;;;;;;11.40;8.60;;;;;;;18.48;73.75;99283.54;232789;215;138900;-60
2023/09/16 23:15:37;;;;;;;12.50;8.10;;;;;;;18.42;74.01;99284.01;232720;214;137700;-61
2023/09/16 23:20:41;;;;;;;11.20;7.90;;;;;;;18.41;74.12;99279.48;232788;214;146999;-60
2023/09/16 23:25:46;;;;;;;13.00;8.40;;;;;;;18.45;74.11;99283.77;232711;214;138966;-62
2023/09/16 23:30:50;;;;;;;12.10;8.70;;;;;;;18.46;73.96;99277.73;232836;215;137870;-62
2023/09/16 23:35:56;;;;;;;12.00;8.80;;;;;;;18.44;74.05;99273.39;232756;214;145818;-61
2023/09/16 23:41:01;;;;;;;9.50;8.10;;;;;;;18.39;73.95;99271.52;232714;215;140315;-61
2023/09/16 23:46:07;;;;;;;10.70;8.00;;;;;;;18.35;74.02;99270.00;232879;214;137265;-60